createdAt,value
2018-06-16T00:02:20.243Z,15.20
2018-06-16T00:07:16.469Z,15.10
2018-06-16T00:09:44.681Z,15.10
2018-06-16T00:12:12.926Z,15.10
2018-06-16T00:14:41.142Z,15.00
2018-06-16T00:17:09.405Z,15.00
2018-06-16T00:19:37.703Z,14.90
2018-06-16T00:22:05.995Z,14.90
2018-06-16T00:24:34.170Z,14.80
2018-06-16T00:27:02.393Z,14.80
2018-06-16T00:29:30.602Z,14.80
2018-06-16T00:31:58.814Z,14.70
2018-06-16T00:34:27.046Z,14.70
2018-06-16T00:36:55.249Z,14.70
2018-06-16T00:39:23.474Z,14.70
2018-06-16T00:41:58.322Z,14.80
2018-06-16T00:44:26.531Z,14.70
2018-06-16T00:46:54.721Z,14.80
2018-06-16T00:49:22.956Z,14.80
2018-06-16T00:51:51.169Z,14.70
2018-06-16T00:54:19.381Z,14.70
2018-06-16T00:56:57.693Z,14.70
2018-06-16T00:59:25.918Z,14.70
2018-06-16T01:01:54.142Z,14.70
2018-06-16T01:04:22.348Z,14.70
2018-06-16T01:06:50.550Z,14.60
2018-06-16T01:09:18.771Z,14.50
2018-06-16T01:11:46.969Z,14.50
2018-06-16T01:14:15.217Z,14.40
2018-06-16T01:16:43.420Z,14.50
2018-06-16T01:19:11.610Z,14.50
2018-06-16T01:21:39.821Z,14.40
2018-06-16T01:24:08.022Z,14.40
2018-06-16T01:26:36.236Z,14.40
2018-06-16T01:29:04.493Z,14.40
2018-06-16T01:31:32.771Z,14.30
2018-06-16T01:34:01.000Z,14.30
2018-06-16T01:36:29.223Z,14.20
2018-06-16T01:38:57.443Z,14.20
2018-06-16T01:41:25.667Z,14.20
2018-06-16T01:43:53.882Z,14.20
2018-06-16T01:46:22.078Z,14.20
2018-06-16T01:48:50.305Z,14.20
2018-06-16T01:51:18.563Z,14.10
2018-06-16T01:53:47.306Z,14.10
2018-06-16T01:56:15.474Z,14.10
2018-06-16T01:58:43.646Z,14.00
2018-06-16T02:01:11.810Z,14.00
2018-06-16T02:03:39.999Z,14.00
2018-06-16T02:06:08.179Z,14.00
2018-06-16T02:08:36.395Z,14.00
2018-06-16T02:11:04.609Z,14.00
2018-06-16T02:13:32.809Z,13.90
2018-06-16T02:16:07.306Z,14.00
2018-06-16T02:18:35.542Z,14.00
2018-06-16T02:21:03.802Z,14.00
2018-06-16T02:23:32.042Z,14.00
2018-06-16T02:26:00.225Z,14.00
2018-06-16T02:28:28.414Z,14.10
2018-06-16T02:30:56.577Z,14.10
2018-06-16T02:33:24.801Z,14.20
2018-06-16T02:35:52.983Z,14.20
2018-06-16T02:38:21.141Z,14.20
2018-06-16T02:40:49.494Z,14.10
2018-06-16T02:43:17.697Z,14.20
2018-06-16T02:45:45.869Z,14.30
2018-06-16T02:48:14.049Z,14.30
2018-06-16T02:50:42.235Z,14.20
2018-06-16T02:53:10.498Z,14.20
2018-06-16T02:55:38.682Z,14.30
2018-06-16T02:58:06.883Z,14.20
2018-06-16T03:00:35.361Z,14.20
2018-06-16T03:03:03.568Z,14.10
2018-06-16T03:05:31.802Z,14.10
2018-06-16T03:08:00.063Z,14.10
2018-06-16T03:10:28.259Z,14.10
2018-06-16T03:12:56.475Z,14.00
2018-06-16T03:15:24.681Z,13.90
2018-06-16T03:17:52.905Z,13.90
2018-06-16T03:20:21.174Z,13.80
2018-06-16T03:22:49.412Z,13.80
2018-06-16T03:25:17.657Z,13.90
2018-06-16T03:27:45.873Z,13.80
2018-06-16T03:30:14.085Z,13.80
2018-06-16T03:32:42.293Z,13.80
2018-06-16T03:35:10.500Z,13.80
2018-06-16T03:37:38.708Z,13.70
2018-06-16T03:40:06.949Z,13.70
2018-06-16T03:42:35.193Z,13.70
2018-06-16T03:47:31.358Z,13.80
2018-06-16T03:49:59.586Z,13.80
2018-06-16T03:52:27.784Z,13.90
2018-06-16T03:54:56.018Z,13.90
2018-06-16T03:57:24.233Z,14.00
2018-06-16T03:59:52.456Z,14.00
2018-06-16T04:02:20.918Z,13.90
2018-06-16T04:04:49.124Z,13.80
2018-06-16T04:07:17.375Z,13.80
2018-06-16T04:09:45.593Z,13.80
2018-06-16T04:12:13.806Z,13.80
2018-06-16T04:17:15.488Z,13.90
2018-06-16T04:19:43.689Z,13.90
2018-06-16T04:22:11.969Z,14.00
2018-06-16T04:24:40.197Z,14.10
2018-06-16T04:27:08.732Z,14.10
2018-06-16T04:29:36.933Z,14.10
2018-06-16T04:32:06.471Z,14.20
2018-06-16T04:34:35.058Z,14.20
2018-06-16T04:37:03.869Z,14.30
2018-06-16T04:39:32.185Z,14.40
2018-06-16T04:42:00.408Z,14.50
2018-06-16T04:44:28.654Z,14.50
2018-06-16T04:46:57.061Z,14.60
2018-06-16T04:49:25.585Z,14.70
2018-06-16T04:51:53.853Z,14.70
2018-06-16T04:54:22.374Z,14.70
2018-06-16T04:56:50.613Z,14.80
2018-06-16T04:59:18.809Z,15.00
2018-06-16T05:01:47.037Z,15.10
2018-06-16T05:04:15.247Z,15.20
2018-06-16T05:06:43.590Z,15.30
2018-06-16T05:09:12.553Z,15.50
2018-06-16T05:11:40.799Z,15.80
2018-06-16T05:14:09.273Z,16.10
2018-06-16T05:16:37.554Z,16.40
2018-06-16T05:19:05.770Z,16.70
2018-06-16T05:21:33.994Z,17.00
2018-06-16T05:24:02.186Z,17.40
2018-06-16T05:26:30.419Z,17.90
2018-06-16T05:28:58.650Z,18.50
2018-06-16T05:31:26.854Z,19.00
2018-06-16T05:33:55.145Z,19.40
2018-06-16T05:36:23.362Z,19.80
2018-06-16T05:38:51.582Z,20.20
2018-06-16T05:41:19.789Z,20.60
2018-06-16T05:43:48.030Z,20.80
2018-06-16T05:46:16.323Z,20.90
2018-06-16T05:48:44.525Z,21.20
2018-06-16T05:51:12.713Z,21.60
2018-06-16T05:53:40.940Z,21.90
2018-06-16T05:56:09.157Z,22.20
2018-06-16T05:58:37.404Z,22.50
2018-06-16T06:01:05.615Z,22.70
2018-06-16T06:03:33.866Z,22.50
2018-06-16T06:06:02.104Z,22.70
2018-06-16T06:08:30.329Z,22.60
2018-06-16T06:10:58.547Z,22.90
2018-06-16T06:13:26.761Z,22.80
2018-06-16T06:15:55.000Z,23.10
2018-06-16T06:18:23.221Z,23.50
2018-06-16T06:20:51.549Z,23.50
2018-06-16T06:23:19.826Z,23.40
2018-06-16T06:25:48.094Z,23.70
2018-06-16T06:28:16.296Z,24.00
2018-06-16T06:30:44.538Z,24.10
2018-06-16T06:33:12.729Z,24.30
2018-06-16T06:35:40.967Z,24.30
2018-06-16T06:38:09.170Z,24.40
2018-06-16T06:40:37.381Z,24.40
2018-06-16T06:43:05.642Z,24.70
2018-06-16T06:45:33.907Z,25.20
2018-06-16T06:48:02.285Z,25.60
2018-06-16T06:50:30.567Z,25.20
2018-06-16T06:52:58.766Z,24.80
2018-06-16T06:55:26.954Z,25.30
2018-06-16T06:57:55.117Z,25.90
2018-06-16T07:00:23.303Z,25.90
2018-06-16T07:02:51.478Z,26.30
2018-06-16T07:05:19.648Z,26.70
2018-06-16T07:07:47.913Z,26.40
2018-06-16T07:10:16.103Z,25.60
2018-06-16T07:12:44.277Z,25.60
2018-06-16T07:15:12.451Z,26.00
2018-06-16T07:17:40.645Z,26.50
2018-06-16T07:20:09.018Z,26.70
2018-06-16T07:22:37.218Z,26.70
2018-06-16T07:25:06.457Z,26.80
2018-06-16T07:27:34.635Z,26.50
2018-06-16T07:30:02.804Z,26.80
2018-06-16T07:32:31.014Z,26.40
2018-06-16T07:34:59.167Z,26.50
2018-06-16T07:37:27.321Z,26.50
2018-06-16T07:39:55.681Z,26.70
2018-06-16T07:42:23.847Z,27.20
2018-06-16T07:44:52.030Z,27.60
2018-06-16T07:47:20.225Z,27.60
2018-06-16T07:49:48.463Z,27.40
2018-06-16T07:52:16.648Z,28.00
2018-06-16T07:54:44.841Z,27.80
2018-06-16T07:57:13.062Z,27.70
2018-06-16T07:59:41.269Z,28.00
2018-06-16T08:02:09.488Z,28.30
2018-06-16T08:04:37.668Z,28.70
2018-06-16T08:07:05.869Z,28.50
2018-06-16T08:09:34.071Z,28.40
2018-06-16T08:12:02.273Z,27.80
2018-06-16T08:14:30.552Z,27.70
2018-06-16T08:16:58.794Z,28.20
2018-06-16T08:19:27.040Z,28.40
2018-06-16T08:21:55.237Z,28.70
2018-06-16T08:24:23.430Z,28.60
2018-06-16T08:26:51.646Z,27.70
2018-06-16T08:29:19.833Z,27.90
2018-06-16T08:31:48.065Z,27.70
2018-06-16T08:34:16.249Z,27.70
2018-06-16T08:36:44.429Z,27.30
2018-06-16T08:39:13.054Z,26.90
2018-06-16T08:41:41.529Z,27.40
2018-06-16T08:44:10.089Z,27.70
2018-06-16T08:46:38.334Z,28.30
2018-06-16T08:49:06.841Z,28.70
2018-06-16T08:51:35.042Z,27.50
2018-06-16T08:54:03.230Z,27.70
2018-06-16T08:56:31.381Z,27.30
2018-06-16T08:58:59.783Z,27.40
2018-06-16T09:01:27.944Z,26.70
2018-06-16T09:03:56.110Z,26.30
2018-06-16T09:06:24.347Z,26.50
2018-06-16T09:08:52.525Z,25.90
2018-06-16T09:11:20.777Z,26.60
2018-06-16T09:13:49.029Z,27.10
2018-06-16T09:16:17.612Z,27.70
2018-06-16T09:18:45.897Z,27.70
2018-06-16T09:21:14.038Z,28.40
2018-06-16T09:23:42.308Z,28.40
2018-06-16T09:26:10.497Z,29.10
2018-06-16T09:28:38.659Z,29.20
2018-06-16T09:31:06.889Z,27.30
2018-06-16T09:33:35.122Z,26.20
2018-06-16T09:36:03.265Z,26.30
2018-06-16T09:38:31.449Z,26.70
2018-06-16T09:40:59.598Z,26.40
2018-06-16T09:43:27.766Z,26.30
2018-06-16T09:45:55.913Z,26.50
2018-06-16T09:48:24.065Z,26.80
2018-06-16T09:50:52.306Z,26.90
2018-06-16T09:53:20.482Z,27.00
2018-06-16T09:55:48.625Z,26.60
2018-06-16T09:58:16.808Z,26.70
2018-06-16T10:03:12.983Z,26.60
2018-06-16T10:05:41.190Z,26.50
2018-06-16T10:08:09.332Z,26.20
2018-06-16T10:10:37.540Z,25.90
2018-06-16T10:13:05.705Z,25.60
2018-06-16T10:15:33.841Z,26.20
2018-06-16T10:18:02.089Z,25.90
2018-06-16T10:20:30.238Z,26.40
2018-06-16T10:22:58.698Z,26.60
2018-06-16T10:25:26.841Z,26.50
2018-06-16T10:27:55.058Z,26.50
2018-06-16T10:30:23.230Z,26.40
2018-06-16T10:32:51.387Z,26.30
2018-06-16T10:35:19.642Z,26.50
2018-06-16T10:37:47.775Z,27.00
2018-06-16T10:40:15.951Z,27.20
2018-06-16T10:42:44.157Z,27.50
2018-06-16T10:45:12.311Z,28.10
2018-06-16T10:47:40.454Z,28.20
2018-06-16T10:50:08.602Z,28.80
2018-06-16T10:52:36.898Z,28.70
2018-06-16T10:55:05.149Z,28.30
2018-06-16T10:57:33.338Z,27.70
2018-06-16T11:00:01.528Z,27.00
2018-06-16T11:02:29.746Z,26.00
2018-06-16T11:04:57.950Z,25.70
2018-06-16T11:07:26.136Z,25.50
2018-06-16T11:09:54.359Z,25.20
2018-06-16T11:12:22.542Z,25.20
2018-06-16T11:14:50.846Z,24.60
2018-06-16T11:17:19.021Z,24.60
2018-06-16T11:19:47.226Z,24.60
2018-06-16T11:22:15.424Z,24.70
2018-06-16T11:24:43.616Z,24.50
2018-06-16T11:27:11.826Z,24.40
2018-06-16T11:29:40.015Z,24.50
2018-06-16T11:32:08.361Z,24.50
2018-06-16T11:34:36.569Z,24.70
2018-06-16T11:37:04.806Z,24.60
2018-06-16T11:39:33.029Z,24.40
2018-06-16T11:42:01.223Z,24.10
2018-06-16T11:44:29.409Z,23.80
2018-06-16T11:46:57.605Z,23.80
2018-06-16T11:49:25.848Z,23.90
2018-06-16T11:51:54.381Z,24.00
2018-06-16T11:54:22.594Z,24.20
2018-06-16T11:56:50.837Z,24.10
2018-06-16T11:59:19.054Z,24.20
2018-06-16T12:01:47.244Z,24.40
2018-06-16T12:04:15.457Z,24.40
2018-06-16T12:06:43.689Z,24.50
2018-06-16T12:09:13.260Z,24.40
2018-06-16T12:11:41.531Z,24.30
2018-06-16T12:14:10.381Z,24.40
2018-06-16T12:16:38.970Z,24.40
2018-06-16T12:19:07.424Z,24.40
2018-06-16T12:21:35.679Z,24.30
2018-06-16T12:24:03.922Z,24.40
2018-06-16T12:26:32.141Z,24.40
2018-06-16T12:29:00.465Z,24.50
2018-06-16T12:31:35.827Z,24.60
2018-06-16T12:34:04.068Z,24.50
2018-06-16T12:36:32.265Z,24.40
2018-06-16T12:39:00.458Z,24.40
2018-06-16T12:41:28.683Z,24.30
2018-06-16T12:43:56.894Z,24.40
2018-06-16T12:46:25.115Z,24.40
2018-06-16T12:48:53.401Z,24.40
2018-06-16T12:51:21.593Z,24.40
2018-06-16T12:53:49.806Z,24.30
2018-06-16T12:56:18.089Z,24.30
2018-06-16T12:58:46.313Z,24.30
2018-06-16T13:01:14.514Z,24.30
2018-06-16T13:06:10.678Z,24.50
2018-06-16T13:08:38.874Z,24.60
2018-06-16T13:11:07.099Z,24.60
2018-06-16T13:13:35.355Z,24.70
2018-06-16T13:16:03.545Z,24.80
2018-06-16T13:18:31.723Z,25.00
2018-06-16T13:20:59.900Z,25.10
2018-06-16T13:23:28.120Z,25.20
2018-06-16T13:25:56.620Z,25.30
2018-06-16T13:28:24.809Z,25.00
2018-06-16T13:30:53.061Z,24.80
2018-06-16T13:33:21.282Z,24.70
2018-06-16T13:35:49.494Z,24.80
2018-06-16T13:38:17.741Z,24.70
2018-06-16T13:40:45.931Z,24.80
2018-06-16T13:43:14.207Z,24.90
2018-06-16T13:45:42.385Z,25.10
2018-06-16T13:48:10.640Z,25.00
2018-06-16T13:50:38.825Z,24.90
2018-06-16T13:53:07.018Z,25.00
2018-06-16T13:55:35.201Z,25.10
2018-06-16T13:58:03.344Z,25.20
2018-06-16T14:00:31.474Z,25.30
2018-06-16T14:02:59.629Z,25.30
2018-06-16T14:05:27.805Z,25.20
2018-06-16T14:07:55.953Z,25.00
2018-06-16T14:10:24.129Z,25.00
2018-06-16T14:12:52.410Z,25.00
2018-06-16T14:15:20.574Z,25.10
2018-06-16T14:17:48.737Z,25.10
2018-06-16T14:20:16.897Z,25.00
2018-06-16T14:22:45.090Z,25.10
2018-06-16T14:25:13.237Z,25.20
2018-06-16T14:27:41.398Z,25.20
2018-06-16T14:30:09.549Z,25.30
2018-06-16T14:32:37.791Z,25.20
2018-06-16T14:35:06.340Z,25.20
2018-06-16T14:37:34.516Z,25.10
2018-06-16T14:40:02.742Z,25.20
2018-06-16T14:42:30.990Z,25.40
2018-06-16T14:44:59.155Z,25.30
2018-06-16T14:47:27.333Z,25.30
2018-06-16T14:49:55.534Z,25.30
2018-06-16T14:52:23.779Z,25.30
2018-06-16T14:54:52.211Z,25.50
2018-06-16T14:57:20.365Z,25.60
2018-06-16T14:59:48.543Z,25.70
2018-06-16T15:02:16.725Z,25.60
2018-06-16T15:04:44.994Z,25.40
2018-06-16T15:07:13.147Z,25.40
2018-06-16T15:09:41.299Z,25.30
2018-06-16T15:12:09.538Z,25.30
2018-06-16T15:14:37.717Z,25.30
2018-06-16T15:17:05.881Z,25.40
2018-06-16T15:19:34.057Z,25.40
2018-06-16T15:22:02.205Z,25.40
2018-06-16T15:24:30.369Z,25.40
2018-06-16T15:26:58.542Z,25.20
2018-06-16T15:29:26.712Z,25.00
2018-06-16T15:31:54.901Z,25.00
2018-06-16T15:34:23.094Z,25.00
2018-06-16T15:36:51.345Z,25.00
2018-06-16T15:39:19.511Z,25.00
2018-06-16T15:41:47.658Z,25.10
2018-06-16T15:44:15.824Z,25.00
2018-06-16T15:46:43.993Z,24.90
2018-06-16T15:49:12.156Z,24.80
2018-06-16T15:51:40.318Z,24.70
2018-06-16T15:54:08.497Z,24.60
2018-06-16T15:56:36.702Z,24.70
2018-06-16T15:59:04.929Z,24.90
2018-06-16T16:01:33.129Z,24.90
2018-06-16T16:04:01.355Z,24.80
2018-06-16T16:06:29.559Z,24.80
2018-06-16T16:08:57.777Z,24.90
2018-06-16T16:11:25.990Z,25.00
2018-06-16T16:13:54.281Z,25.00
2018-06-16T16:16:22.497Z,24.90
2018-06-16T16:18:50.907Z,24.90
2018-06-16T16:21:19.110Z,24.80
2018-06-16T16:23:47.346Z,24.90
2018-06-16T16:26:15.541Z,24.80
2018-06-16T16:28:43.742Z,24.90
2018-06-16T16:31:11.929Z,24.90
2018-06-16T16:33:40.155Z,24.90
2018-06-16T16:36:08.358Z,24.90
2018-06-16T16:38:36.541Z,25.00
2018-06-16T16:41:04.730Z,24.90
2018-06-16T16:43:32.916Z,25.00
2018-06-16T16:46:01.197Z,25.00
2018-06-16T16:48:29.417Z,25.00
2018-06-16T16:50:57.645Z,25.00
2018-06-16T16:53:25.950Z,25.00
2018-06-16T16:55:54.138Z,25.00
2018-06-16T16:58:22.337Z,24.90
2018-06-16T17:00:50.796Z,24.80
2018-06-16T17:03:18.990Z,24.70
2018-06-16T17:05:47.208Z,24.60
2018-06-16T17:08:15.422Z,24.60
2018-06-16T17:10:43.613Z,24.60
2018-06-16T17:13:11.810Z,24.50
2018-06-16T17:15:40.016Z,24.50
2018-06-16T17:18:08.206Z,24.50
2018-06-16T17:20:36.403Z,24.40
2018-06-16T17:23:04.597Z,24.30
2018-06-16T17:25:32.807Z,24.30
2018-06-16T17:28:01.023Z,24.40
2018-06-16T17:30:29.285Z,24.50
2018-06-16T17:32:57.554Z,24.50
2018-06-16T17:35:25.737Z,24.50
2018-06-16T17:40:21.949Z,24.30
2018-06-16T17:42:50.170Z,24.30
2018-06-16T17:45:18.368Z,24.30
2018-06-16T17:47:46.593Z,24.30
2018-06-16T17:50:14.843Z,24.30
2018-06-16T17:52:43.061Z,24.30
2018-06-16T17:55:11.233Z,24.20
2018-06-16T17:57:39.418Z,24.20
2018-06-16T18:00:07.620Z,24.10
2018-06-16T18:02:35.798Z,24.00
2018-06-16T18:05:04.010Z,24.00
2018-06-16T18:07:32.170Z,24.00
2018-06-16T18:10:00.328Z,24.00
2018-06-16T18:12:28.486Z,24.00
2018-06-16T18:14:56.677Z,23.90
2018-06-16T18:17:24.837Z,23.90
2018-06-16T18:19:53.041Z,23.90
2018-06-16T18:22:21.197Z,23.80
2018-06-16T18:24:49.371Z,23.80
2018-06-16T18:27:17.531Z,23.80
2018-06-16T18:29:49.634Z,23.80
2018-06-16T18:32:18.123Z,23.80
2018-06-16T18:34:46.499Z,23.80
2018-06-16T18:37:14.678Z,23.80
2018-06-16T18:39:43.005Z,23.80
2018-06-16T18:42:11.508Z,23.80
2018-06-16T18:44:39.720Z,23.80
2018-06-16T18:47:07.874Z,23.70
2018-06-16T18:49:36.053Z,23.70
2018-06-16T18:54:32.485Z,23.60
2018-06-16T18:57:00.694Z,23.60
2018-06-16T18:59:28.880Z,23.50
2018-06-16T19:01:57.051Z,23.50
2018-06-16T19:04:25.422Z,23.50
2018-06-16T19:06:53.570Z,23.50
2018-06-16T19:09:21.772Z,23.50
2018-06-16T19:11:49.930Z,23.40
2018-06-16T19:14:18.117Z,23.30
2018-06-16T19:16:46.388Z,23.30
2018-06-16T19:19:14.558Z,23.20
2018-06-16T19:21:42.713Z,23.20
2018-06-16T19:24:10.894Z,23.20
2018-06-16T19:26:39.264Z,23.10
2018-06-16T19:29:07.420Z,23.00
2018-06-16T19:31:35.634Z,22.90
2018-06-16T19:34:03.814Z,22.90
2018-06-16T19:36:31.974Z,22.80
2018-06-16T19:39:00.523Z,22.80
2018-06-16T19:41:28.768Z,22.70
2018-06-16T19:43:56.926Z,22.60
2018-06-16T19:46:25.142Z,22.60
2018-06-16T19:48:53.405Z,22.50
2018-06-16T19:51:21.661Z,22.50
2018-06-16T19:53:49.925Z,22.40
2018-06-16T19:56:18.169Z,22.30
2018-06-16T19:58:46.362Z,22.30
2018-06-16T20:01:14.615Z,22.20
2018-06-16T20:03:42.848Z,22.10
2018-06-16T20:06:11.075Z,22.00
2018-06-16T20:08:39.282Z,21.90
2018-06-16T20:11:07.494Z,21.90
2018-06-16T20:13:35.717Z,21.80
2018-06-16T20:16:04.005Z,21.80
2018-06-16T20:18:32.237Z,21.70
2018-06-16T20:21:00.410Z,21.70
2018-06-16T20:23:28.622Z,21.70
2018-06-16T20:25:56.885Z,21.70
2018-06-16T20:28:25.133Z,21.60
2018-06-16T20:30:53.329Z,21.50
2018-06-16T20:33:21.557Z,21.50
2018-06-16T20:35:50.999Z,21.40
2018-06-16T20:38:19.181Z,21.30
2018-06-16T20:40:47.381Z,21.20
2018-06-16T20:43:15.578Z,21.10
2018-06-16T20:45:43.777Z,21.00
2018-06-16T20:48:11.993Z,21.00
2018-06-16T20:50:40.212Z,21.00
2018-06-16T20:53:08.438Z,20.90
2018-06-16T20:55:36.638Z,20.80
2018-06-16T20:58:04.880Z,20.80
2018-06-16T21:00:33.078Z,20.80
2018-06-16T21:03:01.310Z,20.80
2018-06-16T21:05:29.534Z,20.80
2018-06-16T21:07:57.722Z,20.70
2018-06-16T21:10:25.982Z,20.70
2018-06-16T21:12:54.242Z,20.60
2018-06-16T21:15:22.453Z,20.60
2018-06-16T21:17:50.721Z,20.60
2018-06-16T21:20:18.977Z,20.50
2018-06-16T21:22:47.232Z,20.50
2018-06-16T21:25:15.429Z,20.40
2018-06-16T21:27:43.625Z,20.40
2018-06-16T21:30:11.835Z,20.30
2018-06-16T21:32:40.078Z,20.10
2018-06-16T21:35:08.253Z,20.10
2018-06-16T21:37:36.457Z,20.10
2018-06-16T21:40:04.794Z,20.10
2018-06-16T21:42:33.021Z,20.10
2018-06-16T21:45:01.254Z,20.10
2018-06-16T21:47:29.441Z,20.10
2018-06-16T21:49:57.651Z,20.10
2018-06-16T21:52:25.875Z,20.10
2018-06-16T21:54:54.161Z,20.10
2018-06-16T21:57:22.422Z,20.00
2018-06-16T21:59:50.917Z,20.00
2018-06-16T22:02:19.174Z,19.90
2018-06-16T22:04:47.371Z,19.80
2018-06-16T22:07:15.590Z,19.80
2018-06-16T22:09:43.777Z,19.70
2018-06-16T22:12:11.966Z,19.70
2018-06-16T22:14:40.180Z,19.70
2018-06-16T22:17:08.386Z,19.60
2018-06-16T22:19:36.597Z,19.50
2018-06-16T22:22:04.847Z,19.40
2018-06-16T22:24:33.030Z,19.30
2018-06-16T22:27:01.229Z,19.30
2018-06-16T22:29:29.466Z,19.30
2018-06-16T22:31:57.664Z,19.30
2018-06-16T22:34:25.869Z,19.30
2018-06-16T22:36:54.086Z,19.30
2018-06-16T22:39:22.322Z,19.30
2018-06-16T22:41:50.514Z,19.30
2018-06-16T22:44:18.741Z,19.30
2018-06-16T22:46:46.935Z,19.20
2018-06-16T22:49:15.181Z,19.20
2018-06-16T22:51:43.377Z,19.00
2018-06-16T22:54:11.588Z,19.00
2018-06-16T22:56:39.779Z,18.90
2018-06-16T22:59:08.022Z,18.90
2018-06-16T23:01:36.229Z,18.90
2018-06-16T23:04:04.444Z,18.90
2018-06-16T23:06:32.645Z,18.80
2018-06-16T23:09:00.911Z,18.60
2018-06-16T23:11:29.066Z,18.60
2018-06-16T23:13:57.284Z,18.60
2018-06-16T23:16:25.470Z,18.50
2018-06-16T23:18:53.694Z,18.50
2018-06-16T23:21:22.562Z,18.50
2018-06-16T23:23:50.745Z,18.50
2018-06-16T23:26:18.942Z,18.50
2018-06-16T23:28:47.173Z,18.60
2018-06-16T23:31:15.534Z,18.60
2018-06-16T23:33:43.750Z,18.50
2018-06-16T23:36:11.950Z,18.40
2018-06-16T23:38:40.157Z,18.30
2018-06-16T23:41:08.346Z,18.20
2018-06-16T23:43:36.549Z,18.10
2018-06-16T23:46:04.842Z,18.10
2018-06-16T23:48:33.086Z,18.00
2018-06-16T23:51:01.282Z,18.10
2018-06-16T23:53:29.485Z,18.10
2018-06-16T23:55:57.706Z,18.10
2018-06-16T23:58:25.901Z,18.10
